Time;durP1;ratioP1;P1;durP2;ratioP2;P2;SDS_P1;SDS_P2;PMS_P1;PMS_P2;Temp;Humidity;BMP_temperature;BMP_pressure;BME280_temperature;BME280_humidity;BME280_pressure;Samples;Min_cycle;Max_cycle;Signal;HPM_P1;HPM_P2
2023/07/19 00:01:52;;;;;;;3.78;3.40;;;24.30;51.50;25.10;100609.00;;;;6271370;22;20149;-47
2023/07/19 00:04:18;;;;;;;3.83;3.17;;;24.30;51.70;25.10;100611.00;;;;6269106;22;20172;-47
2023/07/19 00:06:43;;;;;;;3.72;3.20;;;24.30;51.70;25.10;100609.00;;;;6270348;22;20195;-47
2023/07/19 00:09:09;;;;;;;4.03;3.10;;;24.30;51.70;25.10;100609.00;;;;6270878;22;20145;-47
2023/07/19 00:11:35;;;;;;;3.60;3.30;;;24.30;51.70;25.00;100614.00;;;;6271021;22;20167;-47
2023/07/19 00:14:05;;;;;;;3.30;3.05;;;24.20;51.80;25.00;100612.00;;;;6271031;22;20167;-48
2023/07/19 00:16:32;;;;;;;3.33;3.03;;;24.20;51.70;25.00;100608.00;;;;6270618;22;20188;-46
2023/07/19 00:18:57;;;;;;;4.97;3.10;;;24.20;51.80;25.00;100594.00;;;;6271174;22;20220;-47
2023/07/19 00:21:23;;;;;;;3.25;2.95;;;24.20;51.90;25.00;100594.00;;;;6271071;22;20671;-48
2023/07/19 00:23:49;;;;;;;3.47;3.17;;;24.20;51.80;25.00;100593.00;;;;6274422;22;20224;-47
2023/07/19 00:26:15;;;;;;;3.83;3.42;;;24.20;51.90;24.90;100590.00;;;;6280348;22;20655;-47
2023/07/19 00:28:41;;;;;;;3.70;3.40;;;24.20;52.00;24.90;100592.00;;;;6270898;22;20152;-48
2023/07/19 00:31:07;;;;;;;3.72;3.10;;;24.10;52.00;24.90;100586.00;;;;6270831;22;20168;-47
2023/07/19 00:33:33;;;;;;;3.70;3.00;;;24.10;52.00;24.90;100592.00;;;;6271016;22;20149;-47
2023/07/19 00:35:58;;;;;;;3.70;3.15;;;24.10;52.00;24.80;100570.00;;;;6271262;22;20259;-47
2023/07/19 00:38:24;;;;;;;3.47;3.17;;;24.10;52.10;24.80;100571.00;;;;6275362;22;20145;-48
2023/07/19 00:40:50;;;;;;;3.17;2.97;;;24.10;52.00;24.80;100569.00;;;;6283428;22;20149;-48
2023/07/19 00:43:15;;;;;;;3.67;3.37;;;24.10;52.20;24.80;100569.00;;;;6270992;22;20152;-47
2023/07/19 00:45:47;;;;;;;4.10;3.10;;;24.00;52.20;24.80;100575.00;;;;6270469;22;20244;-47
2023/07/19 00:48:15;;;;;;;3.42;3.03;;;24.00;52.20;24.70;100575.00;;;;6270390;22;20169;-47
2023/07/19 00:50:41;;;;;;;4.60;3.40;;;24.00;52.20;24.70;100583.00;;;;6270439;22;20181;-47
2023/07/19 00:53:07;;;;;;;3.42;3.13;;;23.90;52.10;24.70;100577.00;;;;6269119;22;20145;-47
2023/07/19 00:55:33;;;;;;;3.23;2.93;;;23.90;52.10;24.60;100578.00;;;;6243537;22;21008;-47
2023/07/19 00:57:59;;;;;;;4.30;3.30;;;23.90;52.10;24.60;100576.00;;;;6270229;22;20215;-47
2023/07/19 01:00:24;;;;;;;3.42;3.08;;;23.90;52.20;24.60;100583.00;;;;6270588;22;20605;-46
2023/07/19 01:02:50;;;;;;;3.50;3.20;;;23.90;52.30;24.60;100576.00;;;;6269086;22;20149;-47
2023/07/19 01:05:16;;;;;;;3.50;2.93;;;23.80;52.20;24.50;100573.00;;;;6269621;22;20153;-47
2023/07/19 01:07:41;;;;;;;3.57;3.10;;;23.80;52.20;24.50;100565.00;;;;6270578;22;20279;-47
2023/07/19 01:10:07;;;;;;;3.47;3.13;;;23.80;52.20;24.50;100567.00;;;;6243041;22;20242;-47
2023/07/19 01:12:33;;;;;;;4.00;3.50;;;23.80;52.30;24.50;100567.00;;;;6218008;22;20632;-47
2023/07/19 01:14:59;;;;;;;3.30;3.00;;;23.80;52.30;24.20;100564.00;;;;6269255;22;20199;-48
2023/07/19 01:17:25;;;;;;;3.87;3.10;;;23.70;52.40;24.40;100552.00;;;;6270611;22;20683;-48
2023/07/19 01:19:50;;;;;;;3.67;3.13;;;23.70;52.50;24.40;100540.00;;;;6272318;22;20152;-48
2023/07/19 01:22:16;;;;;;;3.43;3.13;;;23.70;52.40;24.40;100545.00;;;;6272562;22;20149;-48
2023/07/19 01:24:42;;;;;;;3.33;3.03;;;23.70;52.40;24.40;100536.00;;;;6271941;22;20149;-47
2023/07/19 01:27:07;;;;;;;3.70;3.17;;;23.70;52.40;24.30;100534.00;;;;6271555;22;20176;-48
2023/07/19 01:29:33;;;;;;;3.30;3.00;;;23.70;52.40;24.30;100537.00;;;;6272100;22;20169;-48
2023/07/19 01:31:59;;;;;;;3.37;3.00;;;23.60;52.40;24.30;100548.00;;;;6272200;22;20145;-48
2023/07/19 01:34:25;;;;;;;3.80;3.10;;;23.60;52.30;24.30;100553.00;;;;6272438;22;20158;-48
2023/07/19 01:36:50;;;;;;;3.03;2.80;;;23.60;52.30;24.20;100552.00;;;;6271553;22;20175;-48
2023/07/19 01:39:16;;;;;;;3.40;3.03;;;23.50;52.30;24.20;100538.00;;;;6271968;22;20160;-48
2023/07/19 01:41:42;;;;;;;3.73;3.13;;;23.50;52.30;24.20;100540.00;;;;6272188;22;20152;-48
2023/07/19 01:44:07;;;;;;;3.50;3.20;;;23.50;52.30;24.20;100543.00;;;;6271824;22;20149;-48
2023/07/19 01:46:35;;;;;;;3.10;2.80;;;23.50;52.20;23.90;100535.00;;;;6271165;22;20165;-47
2023/07/19 01:49:01;;;;;;;3.70;3.20;;;23.50;52.10;24.10;100536.00;;;;6271873;22;20141;-47
2023/07/19 01:51:27;;;;;;;3.13;2.83;;;23.50;52.20;24.10;100544.00;;;;6271715;22;20185;-47
2023/07/19 01:53:53;;;;;;;3.23;2.93;;;23.50;52.20;24.10;100467.00;;;;6272110;22;20149;-47
2023/07/19 01:56:19;;;;;;;3.10;2.90;;;23.40;52.10;24.10;100541.00;;;;6271440;22;20165;-47
2023/07/19 01:58:45;;;;;;;4.13;3.07;;;23.50;52.20;24.10;100537.00;;;;6271947;22;20145;-46
2023/07/19 02:01:10;;;;;;;4.87;3.00;;;23.50;52.00;24.10;100530.00;;;;6272223;22;20156;-47
2023/07/19 02:03:36;;;;;;;3.40;3.10;;;23.40;51.90;24.10;100518.00;;;;6272209;22;20203;-48
2023/07/19 02:06:02;;;;;;;3.20;2.90;;;23.40;51.90;24.10;100525.00;;;;6270340;22;20583;-48
2023/07/19 02:08:28;;;;;;;4.30;3.00;;;23.40;51.90;24.00;100534.00;;;;6271751;22;20157;-46
2023/07/19 02:10:54;;;;;;;3.80;3.10;;;23.40;51.90;24.00;100524.00;;;;6272252;22;20173;-49
2023/07/19 02:13:20;;;;;;;3.43;3.13;;;23.40;51.80;24.00;100517.00;;;;6272014;22;20176;-46
2023/07/19 02:15:45;;;;;;;4.20;3.03;;;23.40;51.90;24.00;100522.00;;;;6270685;22;20156;-46
2023/07/19 02:18:11;;;;;;;4.33;3.50;;;23.40;52.10;24.00;100520.00;;;;6271685;22;20176;-46
2023/07/19 02:20:38;;;;;;;3.77;3.37;;;23.30;52.10;24.00;100518.00;;;;6271962;22;20160;-48
2023/07/19 02:23:04;;;;;;;3.73;2.90;;;23.30;52.20;23.90;100515.00;;;;6271984;22;20159;-47
2023/07/19 02:25:29;;;;;;;3.23;3.00;;;23.30;52.10;23.90;100515.00;;;;6270937;22;20149;-46
2023/07/19 02:27:55;;;;;;;3.30;3.00;;;23.30;52.20;23.70;100508.00;;;;6284836;22;20230;-47
2023/07/19 02:30:21;;;;;;;3.43;3.13;;;23.30;52.10;23.90;100513.00;;;;6274863;22;20218;-48
2023/07/19 02:32:47;;;;;;;4.90;3.00;;;23.30;52.20;23.90;100524.00;;;;6271585;22;20194;-48
2023/07/19 02:35:13;;;;;;;3.73;3.27;;;23.20;52.10;23.80;100522.00;;;;6270582;22;20493;-48
2023/07/19 02:37:38;;;;;;;3.40;3.10;;;23.20;52.10;23.80;100515.00;;;;6271614;22;20183;-48
2023/07/19 02:40:05;;;;;;;3.33;3.03;;;23.20;52.20;23.80;100515.00;;;;6271949;22;20207;-50
2023/07/19 02:42:31;;;;;;;3.40;3.10;;;23.20;52.20;23.80;100511.00;;;;6283251;22;20217;-48
2023/07/19 02:44:57;;;;;;;3.33;3.03;;;23.20;52.10;23.80;100515.00;;;;6274197;22;20207;-48
2023/07/19 02:47:22;;;;;;;3.93;3.10;;;23.10;52.10;23.80;100520.00;;;;6271667;22;20179;-48
2023/07/19 02:49:50;;;;;;;3.20;2.90;;;23.20;52.10;23.70;100508.00;;;;6271483;22;20311;-48
2023/07/19 02:52:15;;;;;;;3.27;2.97;;;23.10;52.00;23.70;100512.00;;;;6271917;22;20165;-48
2023/07/19 02:54:41;;;;;;;3.47;3.20;;;23.10;52.20;23.70;100511.00;;;;6271176;22;20181;-48
2023/07/19 02:57:07;;;;;;;3.30;3.00;;;23.00;52.20;23.60;100520.00;;;;6271472;22;20614;-48
2023/07/19 02:59:32;;;;;;;4.60;2.90;;;23.00;52.10;23.60;100515.00;;;;6271494;22;20153;-48
2023/07/19 03:01:58;;;;;;;3.30;3.00;;;23.00;51.90;23.60;100519.00;;;;6271086;22;20160;-48
2023/07/19 03:04:24;;;;;;;3.77;3.20;;;23.00;51.70;23.60;100511.00;;;;6272680;22;20486;-48
2023/07/19 03:06:49;;;;;;;3.23;2.93;;;22.90;52.00;23.50;100517.00;;;;6272230;22;20171;-48
2023/07/19 03:09:15;;;;;;;4.60;3.10;;;22.90;52.10;23.50;100518.00;;;;6273337;22;20168;-48
2023/07/19 03:11:41;;;;;;;4.60;3.10;;;22.90;52.30;23.50;100509.00;;;;6272989;22;20152;-48
2023/07/19 03:14:07;;;;;;;3.63;2.97;;;22.90;52.20;23.50;100516.00;;;;6273095;22;20145;-48
2023/07/19 03:16:33;;;;;;;3.50;3.20;;;22.90;52.30;23.50;100510.00;;;;6271661;22;20486;-48
2023/07/19 03:18:59;;;;;;;3.63;3.10;;;22.90;52.60;23.50;100516.00;;;;6273026;22;20152;-48
2023/07/19 03:21:24;;;;;;;3.90;3.23;;;22.90;52.50;23.40;100513.00;;;;6272955;22;20177;-48
2023/07/19 03:23:51;;;;;;;3.33;3.03;;;22.90;52.60;23.40;100519.00;;;;6272862;22;20149;-47
2023/07/19 03:26:16;;;;;;;4.03;3.20;;;22.90;52.60;23.40;100522.00;;;;6271526;22;20164;-47
2023/07/19 03:28:42;;;;;;;3.80;3.30;;;22.70;52.80;23.30;100527.00;;;;6272566;22;20205;-47
2023/07/19 03:31:11;;;;;;;4.53;2.87;;;22.80;53.10;23.30;100522.00;;;;6270604;22;20180;-47
2023/07/19 03:33:37;;;;;;;3.63;3.07;;;22.80;53.20;23.30;100530.00;;;;6272561;22;20796;-47
2023/07/19 03:36:03;;;;;;;4.90;3.30;;;22.80;53.00;23.30;100528.00;;;;6271553;22;20171;-47
2023/07/19 03:38:29;;;;;;;3.73;3.20;;;22.80;52.90;23.30;100525.00;;;;6272091;22;20180;-47
2023/07/19 03:41:03;;;;;;;4.40;3.40;;;22.80;52.90;23.30;100534.00;;;;6270420;22;20148;-47
2023/07/19 03:43:29;;;;;;;4.40;3.37;;;22.80;53.00;23.30;100538.00;;;;6271104;22;20134;-47
2023/07/19 03:45:55;;;;;;;4.00;3.50;;;22.70;53.10;23.20;100549.00;;;;6271354;22;20156;-47
2023/07/19 03:48:20;;;;;;;5.80;3.40;;;22.70;53.20;23.20;100544.00;;;;6271130;22;20493;-46
2023/07/19 03:51:01;;;;;;;3.57;3.10;;;22.70;53.30;23.20;100535.00;;;;6272598;22;20169;-47
2023/07/19 03:53:28;;;;;;;3.97;3.30;;;22.70;53.30;23.20;100545.00;;;;6272735;22;20148;-47
2023/07/19 03:55:58;;;;;;;3.50;3.20;;;22.70;53.20;23.20;100541.00;;;;6270300;22;20152;-47
2023/07/19 03:58:24;;;;;;;3.80;3.40;;;22.70;53.40;23.10;100537.00;;;;6273127;22;20141;-47
2023/07/19 04:00:59;;;;;;;3.40;3.10;;;22.60;53.20;23.10;100534.00;;;;6269075;22;20719;-47
2023/07/19 04:03:26;;;;;;;4.10;3.33;;;22.60;53.30;23.10;100544.00;;;;6272386;22;20140;-47
2023/07/19 04:05:54;;;;;;;3.57;3.27;;;22.60;53.40;23.10;100548.00;;;;6271429;22;20175;-47
2023/07/19 04:08:19;;;;;;;4.93;2.97;;;22.50;53.60;23.10;100561.00;;;;6266274;22;20199;-47
2023/07/19 04:10:45;;;;;;;3.33;3.07;;;22.50;53.50;23.10;100551.00;;;;6268855;22;20176;-46
2023/07/19 04:13:11;;;;;;;3.63;3.30;;;22.50;53.70;23.00;100538.00;;;;6271121;22;20145;-47
2023/07/19 04:15:37;;;;;;;3.87;3.43;;;22.50;53.50;23.00;100552.00;;;;6270897;22;20168;-46
2023/07/19 04:18:03;;;;;;;4.13;3.17;;;22.50;53.80;23.00;100561.00;;;;6240826;23;20204;-47
2023/07/19 04:20:29;;;;;;;5.17;3.20;;;22.50;54.00;23.00;100556.00;;;;6241178;23;20176;-47
2023/07/19 04:22:55;;;;;;;5.10;3.10;;;22.40;53.90;23.00;100555.00;;;;6241712;23;20224;-48
2023/07/19 04:25:21;;;;;;;3.80;3.27;;;22.40;53.80;23.00;100553.00;;;;6239965;23;20671;-47
2023/07/19 04:27:47;;;;;;;4.60;3.10;;;22.40;53.60;23.00;100545.00;;;;6247309;23;20169;-48
2023/07/19 04:30:13;;;;;;;3.23;2.93;;;22.40;53.70;22.90;100550.00;;;;6218493;23;20259;-47
2023/07/19 04:32:39;;;;;;;4.87;3.43;;;22.40;53.80;22.90;100550.00;;;;6240667;23;20145;-47
2023/07/19 04:35:06;;;;;;;4.03;3.10;;;22.40;53.90;22.90;100557.00;;;;6240388;23;20148;-47
2023/07/19 04:37:32;;;;;;;4.83;3.00;;;22.40;54.20;22.90;100553.00;;;;6241389;23;20165;-47
2023/07/19 04:39:58;;;;;;;4.10;3.70;;;22.40;54.30;22.90;100557.00;;;;6240228;23;20210;-47
2023/07/19 04:42:24;;;;;;;4.30;3.50;;;22.30;54.20;22.90;100553.00;;;;6249962;23;20320;-47
2023/07/19 04:44:50;;;;;;;8.20;7.40;;;22.40;54.30;22.90;100551.00;;;;6244918;23;20171;-47
2023/07/19 04:47:15;;;;;;;4.70;4.20;;;22.40;54.00;22.90;100557.00;;;;6239274;23;20255;-48
2023/07/19 04:49:41;;;;;;;3.83;3.53;;;22.40;54.20;22.90;100559.00;;;;6241069;23;20813;-47
2023/07/19 04:52:07;;;;;;;4.47;3.90;;;22.40;54.40;22.80;100565.00;;;;6241078;23;20149;-47
2023/07/19 04:54:33;;;;;;;5.83;3.57;;;22.30;54.30;22.80;100555.00;;;;6240197;23;20145;-48
2023/07/19 04:56:59;;;;;;;3.77;3.20;;;22.40;54.30;22.80;100561.00;;;;6213934;23;20180;-47
2023/07/19 04:59:24;;;;;;;3.43;3.13;;;22.50;54.10;22.80;100555.00;;;;6240773;23;20152;-47
2023/07/19 05:01:50;;;;;;;3.40;3.10;;;22.50;53.70;22.80;100549.00;;;;6240382;23;20637;-47
2023/07/19 05:04:16;;;;;;;3.40;3.10;;;22.50;53.30;22.80;100549.00;;;;6241034;23;20150;-52
2023/07/19 05:06:42;;;;;;;3.10;2.80;;;22.40;53.50;22.60;100555.00;;;;6239909;23;20165;-47
2023/07/19 05:09:09;;;;;;;4.07;3.30;;;22.50;54.10;22.80;100558.00;;;;6213724;23;20145;-46
2023/07/19 05:11:35;;;;;;;3.70;3.23;;;22.50;53.80;22.80;100567.00;;;;6240781;23;20263;-47
2023/07/19 05:14:01;;;;;;;3.47;3.17;;;22.50;54.00;22.80;100550.00;;;;6240943;23;20521;-47
2023/07/19 05:16:27;;;;;;;3.37;3.07;;;22.50;54.40;22.80;100555.00;;;;6250006;22;20184;-46
2023/07/19 05:18:53;;;;;;;3.40;3.10;;;22.50;53.50;22.80;100557.00;;;;6271751;22;20145;-47
2023/07/19 05:21:18;;;;;;;3.30;3.00;;;22.40;53.30;22.80;100564.00;;;;6271377;22;20148;-46
2023/07/19 05:23:45;;;;;;;3.67;3.37;;;22.40;53.20;22.80;100559.00;;;;6270952;22;20149;-47
2023/07/19 05:26:10;;;;;;;3.47;3.17;;;22.40;53.50;22.80;100559.00;;;;6270363;22;20180;-49
2023/07/19 05:28:36;;;;;;;3.47;3.10;;;22.40;53.50;22.80;100559.00;;;;6271544;22;20145;-47
2023/07/19 05:31:03;;;;;;;3.40;3.10;;;22.50;53.50;22.80;100563.00;;;;6270840;22;20497;-48
2023/07/19 05:33:29;;;;;;;3.20;2.90;;;22.50;53.50;22.80;100575.00;;;;6271739;22;20173;-48
2023/07/19 05:35:55;;;;;;;3.73;3.17;;;22.60;53.70;22.80;100568.00;;;;6271086;22;20148;-48
2023/07/19 05:38:21;;;;;;;3.60;3.30;;;22.50;53.60;22.80;100567.00;;;;6271429;22;20141;-48
2023/07/19 05:40:47;;;;;;;3.27;2.97;;;22.50;53.60;22.80;100558.00;;;;6271448;22;20598;-48
2023/07/19 05:43:13;;;;;;;3.23;2.90;;;22.50;53.40;22.80;100564.00;;;;6271720;22;20152;-47
2023/07/19 05:45:39;;;;;;;3.40;3.10;;;22.40;53.30;22.80;100564.00;;;;6269678;22;20149;-47
2023/07/19 05:48:04;;;;;;;3.50;3.20;;;22.40;53.40;22.80;100556.00;;;;6270393;22;20583;-47
2023/07/19 05:50:30;;;;;;;3.67;3.17;;;22.40;53.50;22.80;100556.00;;;;6270987;22;20559;-49
2023/07/19 05:52:56;;;;;;;3.33;3.03;;;22.40;53.60;22.80;100573.00;;;;6270809;22;20142;-47
2023/07/19 05:55:22;;;;;;;4.40;3.30;;;22.40;54.20;22.70;100574.00;;;;6270360;22;20142;-48
2023/07/19 05:57:47;;;;;;;4.50;3.50;;;22.40;54.20;22.70;100567.00;;;;6271445;22;20652;-48
2023/07/19 06:00:28;;;;;;;4.80;3.40;;;22.40;54.30;22.70;100564.00;;;;6271238;22;20153;-48
2023/07/19 06:02:57;;;;;;;3.43;3.13;;;22.30;54.10;22.70;100564.00;;;;6272470;22;20140;-48
2023/07/19 06:05:24;;;;;;;3.73;3.37;;;22.30;54.10;22.70;100557.00;;;;6271777;22;20198;-48
2023/07/19 06:07:50;;;;;;;4.30;3.40;;;22.40;54.20;22.70;100550.00;;;;6272755;22;20173;-47
2023/07/19 06:10:16;;;;;;;4.07;3.20;;;22.40;54.20;22.70;100554.00;;;;6272959;22;20234;-46
2023/07/19 06:12:43;;;;;;;3.97;3.57;;;22.40;54.10;22.70;100553.00;;;;6273762;22;20145;-47
2023/07/19 06:15:09;;;;;;;3.50;3.20;;;22.50;54.40;22.70;100557.00;;;;6272156;22;20637;-48
2023/07/19 06:17:35;;;;;;;4.73;3.33;;;22.40;54.30;22.70;100557.00;;;;6272562;22;20174;-49
2023/07/19 06:20:01;;;;;;;3.80;3.50;;;22.40;54.40;22.70;100558.00;;;;6272937;22;20156;-49
2023/07/19 06:22:26;;;;;;;3.40;3.10;;;22.40;54.40;22.70;100558.00;;;;6272563;22;20145;-48
2023/07/19 06:24:52;;;;;;;5.10;3.60;;;22.30;54.30;22.70;100558.00;;;;6272742;22;20149;-48
2023/07/19 06:27:18;;;;;;;3.67;3.37;;;22.40;54.80;22.70;100563.00;;;;6282801;22;20192;-53
2023/07/19 06:29:44;;;;;;;5.87;3.83;;;22.40;54.40;22.70;100562.00;;;;6278083;22;20168;-47
2023/07/19 06:32:10;;;;;;;4.33;3.70;;;22.40;54.40;22.70;100565.00;;;;6272901;22;20801;-48
2023/07/19 06:34:36;;;;;;;5.63;3.37;;;22.40;54.40;22.70;100565.00;;;;6273264;22;20228;-48
2023/07/19 06:37:01;;;;;;;4.00;3.60;;;22.30;54.50;22.70;100560.00;;;;6272687;22;20254;-49
2023/07/19 06:39:28;;;;;;;3.80;3.40;;;22.30;54.60;22.70;100555.00;;;;6272905;22;20153;-48
2023/07/19 06:41:54;;;;;;;3.40;3.10;;;22.20;54.20;22.70;100556.00;;;;6281574;22;20149;-48
2023/07/19 06:44:20;;;;;;;3.77;3.43;;;22.20;54.50;22.70;100563.00;;;;6277862;22;20172;-48
2023/07/19 06:46:45;;;;;;;4.23;3.40;;;22.30;54.70;22.70;100560.00;;;;6271335;22;20169;-47
2023/07/19 06:49:11;;;;;;;6.40;3.50;;;22.30;54.70;22.70;100561.00;;;;6272504;22;20211;-48
2023/07/19 06:51:37;;;;;;;3.97;3.57;;;22.20;54.60;22.60;100548.00;;;;6272313;22;20173;-48
2023/07/19 06:54:03;;;;;;;3.53;3.23;;;22.20;54.70;22.60;100560.00;;;;6272943;22;20480;-48
2023/07/19 06:56:28;;;;;;;3.67;3.37;;;22.20;54.80;22.60;100556.00;;;;6271630;22;20168;-47
2023/07/19 06:58:54;;;;;;;5.10;3.33;;;22.10;54.70;22.60;100560.00;;;;6272398;22;20145;-47
2023/07/19 07:01:20;;;;;;;3.80;3.07;;;22.10;55.30;22.60;100545.00;;;;6272521;22;20153;-47
2023/07/19 07:03:46;;;;;;;5.30;3.30;;;22.00;55.00;22.60;100545.00;;;;6272382;22;20176;-47
2023/07/19 07:06:11;;;;;;;4.30;3.70;;;22.10;55.20;22.60;100569.00;;;;6271261;22;20144;-47
2023/07/19 07:08:37;;;;;;;4.80;4.07;;;22.10;55.50;22.60;100567.00;;;;6272131;22;20400;-47
2023/07/19 07:11:04;;;;;;;5.87;4.03;;;22.20;55.90;22.60;100564.00;;;;6272167;22;20168;-47
2023/07/19 07:13:30;;;;;;;4.40;4.00;;;22.20;56.30;22.60;100569.00;;;;6272442;22;20145;-47
2023/07/19 07:15:58;;;;;;;4.30;3.73;;;22.20;55.90;22.60;100572.00;;;;6269909;22;20141;-48
2023/07/19 07:18:23;;;;;;;3.93;3.53;;;22.20;56.40;22.60;100570.00;;;;6269989;22;20137;-47
2023/07/19 07:20:52;;;;;;;4.37;3.93;;;22.20;55.70;22.60;100572.00;;;;6270220;22;20145;-47
2023/07/19 07:23:18;;;;;;;6.00;4.50;;;22.20;55.70;22.60;100574.00;;;;6272203;22;20173;-48
2023/07/19 07:25:44;;;;;;;5.90;4.03;;;22.30;55.80;22.60;100571.00;;;;6271455;22;20195;-48
2023/07/19 07:28:09;;;;;;;4.40;4.00;;;22.20;55.70;22.60;100571.00;;;;6272033;22;20169;-48
2023/07/19 07:30:36;;;;;;;6.70;4.63;;;22.20;55.60;22.60;100569.00;;;;6272618;22;20176;-48
2023/07/19 07:33:03;;;;;;;5.63;4.33;;;22.20;55.80;22.60;100571.00;;;;6268843;22;20151;-48
2023/07/19 07:35:29;;;;;;;5.17;4.60;;;22.20;55.70;22.60;100567.00;;;;6268800;22;20251;-48
2023/07/19 07:37:55;;;;;;;5.77;4.43;;;22.20;55.90;22.60;100575.00;;;;6270297;22;20169;-48
2023/07/19 07:40:20;;;;;;;6.47;4.30;;;22.20;55.80;22.60;100578.00;;;;6270056;22;20145;-47
2023/07/19 07:42:46;;;;;;;6.37;4.20;;;22.20;55.90;22.60;100574.00;;;;6269975;22;20620;-46
2023/07/19 07:45:12;;;;;;;4.53;4.00;;;22.10;55.90;22.50;100575.00;;;;6270749;22;20228;-47
2023/07/19 07:47:38;;;;;;;5.53;4.27;;;22.10;55.90;22.60;100573.00;;;;6272089;22;20164;-47
2023/07/19 07:50:08;;;;;;;4.83;4.33;;;22.00;55.90;22.60;100558.00;;;;6272641;22;20179;-47
2023/07/19 07:52:34;;;;;;;4.37;3.83;;;22.10;56.00;22.60;100574.00;;;;6272646;22;20149;-47
2023/07/19 07:55:00;;;;;;;4.30;3.90;;;22.00;55.90;22.60;100578.00;;;;6271215;22;20141;-47
2023/07/19 07:57:26;;;;;;;4.03;3.60;;;22.00;55.80;22.50;100573.00;;;;6272320;22;20172;-46
2023/07/19 07:59:52;;;;;;;4.53;3.80;;;21.90;56.30;22.50;100575.00;;;;6271690;22;20195;-47
2023/07/19 08:02:17;;;;;;;4.27;3.80;;;22.00;56.00;22.50;100568.00;;;;6272090;22;20563;-49
2023/07/19 08:04:43;;;;;;;4.40;4.00;;;22.00;56.20;22.50;100580.00;;;;6271869;22;20149;-49
2023/07/19 08:07:09;;;;;;;4.20;3.60;;;21.90;55.90;22.50;100562.00;;;;6271815;22;20173;-48
2023/07/19 08:09:34;;;;;;;4.50;3.80;;;21.90;56.60;22.50;100546.00;;;;6271444;22;20149;-47
2023/07/19 08:12:00;;;;;;;6.40;3.83;;;21.90;55.90;22.50;100549.00;;;;6272022;22;20427;-48
2023/07/19 08:14:26;;;;;;;4.13;3.70;;;21.90;55.90;22.50;100553.00;;;;6271971;22;20149;-48
2023/07/19 08:16:53;;;;;;;3.90;3.37;;;21.90;56.10;22.50;100566.00;;;;6271369;22;20173;-48
2023/07/19 08:19:18;;;;;;;4.10;3.80;;;22.00;56.00;22.50;100571.00;;;;6272266;22;20156;-48
2023/07/19 08:21:44;;;;;;;4.47;3.80;;;22.00;56.00;22.50;100570.00;;;;6272336;22;20149;-48
2023/07/19 08:24:11;;;;;;;4.17;3.70;;;21.90;56.10;22.50;100561.00;;;;6272452;22;20148;-48
2023/07/19 08:26:38;;;;;;;5.30;4.00;;;22.00;56.20;22.50;100563.00;;;;6273607;22;20556;-48
2023/07/19 08:29:04;;;;;;;4.67;3.60;;;22.00;56.20;22.50;100552.00;;;;6281173;22;20167;-48
2023/07/19 08:31:29;;;;;;;4.00;3.50;;;22.00;56.30;22.50;100566.00;;;;6271846;22;20577;-48
2023/07/19 08:33:55;;;;;;;3.80;3.40;;;21.90;56.20;22.50;100566.00;;;;6272199;22;20145;-48
2023/07/19 08:36:21;;;;;;;4.90;4.37;;;21.90;56.10;22.50;100572.00;;;;6269567;22;20191;-48
2023/07/19 08:38:47;;;;;;;7.30;4.30;;;21.90;56.30;22.50;100580.00;;;;6269288;22;20282;-47
2023/07/19 08:41:13;;;;;;;5.37;3.93;;;22.00;56.70;22.50;100580.00;;;;6274227;22;20145;-48
2023/07/19 08:43:38;;;;;;;6.73;4.30;;;22.10;56.60;22.50;100598.00;;;;6254872;22;20153;-48
2023/07/19 08:46:04;;;;;;;4.73;4.23;;;22.00;56.50;22.50;100582.00;;;;6269185;22;20610;-48
2023/07/19 08:48:34;;;;;;;4.40;4.00;;;22.00;56.40;22.50;100571.00;;;;6270312;22;20199;-57
2023/07/19 08:51:01;;;;;;;6.93;4.17;;;22.00;56.30;22.50;100579.00;;;;6272143;22;20183;-57
2023/07/19 08:53:27;;;;;;;5.70;3.90;;;22.00;56.60;22.60;100575.00;;;;6272529;22;20156;-58
2023/07/19 08:55:53;;;;;;;5.40;3.47;;;22.00;56.80;22.60;100589.00;;;;6264630;22;20498;-58
2023/07/19 08:58:19;;;;;;;4.93;3.50;;;22.10;56.50;22.70;100578.00;;;;6271522;22;20219;-58
2023/07/19 09:00:46;;;;;;;4.73;3.43;;;22.10;56.40;22.70;100570.00;;;;6271481;22;20585;-58
2023/07/19 09:03:12;;;;;;;5.33;3.60;;;22.10;56.80;22.70;100582.00;;;;6271349;22;20194;-58
2023/07/19 09:05:38;;;;;;;4.90;3.30;;;22.20;56.10;22.80;100573.00;;;;6269730;22;20485;-58
2023/07/19 09:08:04;;;;;;;3.90;3.10;;;22.20;56.00;22.80;100566.00;;;;6270726;22;20188;-58
2023/07/19 09:10:30;;;;;;;6.27;3.40;;;22.20;56.00;22.80;100567.00;;;;6270933;22;20627;-57
2023/07/19 09:12:56;;;;;;;5.07;3.30;;;22.20;55.90;22.90;100580.00;;;;6271072;22;20152;-57
2023/07/19 09:15:22;;;;;;;4.30;3.40;;;22.20;56.00;22.90;100576.00;;;;6269082;22;20152;-58
2023/07/19 09:17:49;;;;;;;6.60;3.80;;;22.20;56.00;22.90;100587.00;;;;6271676;22;20177;-58
2023/07/19 09:20:16;;;;;;;6.27;3.40;;;22.20;56.30;22.90;100581.00;;;;6269600;22;20176;-57
2023/07/19 09:22:42;;;;;;;5.57;3.60;;;22.20;56.40;22.90;100575.00;;;;6271331;22;20597;-55
2023/07/19 09:25:10;;;;;;;6.97;3.40;;;22.20;56.30;23.00;100579.00;;;;6270757;22;20216;-56
2023/07/19 09:27:35;;;;;;;5.33;3.33;;;22.30;56.40;23.00;100580.00;;;;6271462;22;20168;-55
2023/07/19 09:30:04;;;;;;;5.67;3.30;;;22.30;56.40;23.00;100569.00;;;;6271872;22;20195;-56
2023/07/19 09:32:30;;;;;;;7.40;3.40;;;22.40;56.40;23.00;100496.00;;;;6271261;22;20141;-55
2023/07/19 09:34:57;;;;;;;10.27;3.67;;;22.30;56.40;23.00;100570.00;;;;6269338;22;20153;-56
2023/07/19 09:37:24;;;;;;;5.93;3.37;;;22.30;56.40;23.00;100571.00;;;;6270706;22;20256;-56
2023/07/19 09:39:51;;;;;;;5.80;3.60;;;22.30;56.30;23.10;100567.00;;;;6271693;22;20153;-55
2023/07/19 09:42:17;;;;;;;5.57;3.40;;;22.40;56.50;23.10;100568.00;;;;6272772;22;20155;-55
2023/07/19 09:44:48;;;;;;;7.53;3.13;;;22.40;56.60;23.10;100560.00;;;;6246164;22;20157;-56
2023/07/19 09:47:14;;;;;;;6.13;3.40;;;22.40;56.50;23.10;100561.00;;;;6271347;22;20175;-56
2023/07/19 09:49:40;;;;;;;9.10;3.57;;;22.40;56.60;23.10;100554.00;;;;6245112;22;20146;-56
2023/07/19 09:52:06;;;;;;;6.73;3.53;;;22.40;56.90;23.10;100559.00;;;;6273053;22;20240;-56
2023/07/19 09:54:32;;;;;;;4.33;3.20;;;22.40;56.80;23.10;100555.00;;;;6271163;22;20142;-53
2023/07/19 09:56:58;;;;;;;4.83;3.20;;;22.40;56.70;23.10;100570.00;;;;6272203;22;20169;-55
2023/07/19 09:59:27;;;;;;;5.77;3.20;;;22.40;56.70;23.10;100552.00;;;;6273588;22;20220;-57
2023/07/19 10:01:53;;;;;;;6.43;3.30;;;22.40;56.60;23.10;100554.00;;;;6271717;22;20146;-55
2023/07/19 10:04:23;;;;;;;4.43;3.13;;;22.40;57.00;23.10;100547.00;;;;6270274;22;20557;-57
2023/07/19 10:07:09;;;;;;;4.27;2.90;;;22.40;57.00;23.10;100551.00;;;;6272813;22;20169;-57
2023/07/19 10:09:45;;;;;;;3.30;3.00;;;22.50;56.70;23.20;100546.00;;;;6249659;22;20169;-55
2023/07/19 10:12:16;;;;;;;3.70;3.00;;;22.50;56.60;23.20;100555.00;;;;6273655;22;20220;-56
2023/07/19 10:14:53;;;;;;;5.43;3.10;;;22.50;56.70;23.20;100549.00;;;;6273008;22;20146;-57
2023/07/19 10:17:18;;;;;;;4.10;3.10;;;22.50;56.70;23.20;100546.00;;;;6272468;22;20188;-58
2023/07/19 10:20:10;;;;;;;4.03;2.90;;;22.50;56.80;23.20;100556.00;;;;6271991;22;20141;-56
2023/07/19 10:22:45;;;;;;;5.10;3.10;;;22.50;56.60;23.20;100543.00;;;;6271786;22;20140;-56
2023/07/19 10:25:14;;;;;;;4.67;3.17;;;22.50;56.60;23.20;100551.00;;;;6272093;22;20141;-58
2023/07/19 10:27:40;;;;;;;5.60;3.00;;;22.50;56.60;23.30;100551.00;;;;6273330;22;20247;-56
2023/07/19 10:30:07;;;;;;;3.27;2.80;;;22.50;56.60;23.30;100551.00;;;;6283054;22;20195;-57
2023/07/19 10:32:32;;;;;;;4.40;2.90;;;22.60;56.70;23.30;100505.00;;;;6275463;22;20141;-55
2023/07/19 10:34:58;;;;;;;5.10;3.00;;;22.50;56.60;23.30;100542.00;;;;6271814;22;20219;-55
2023/07/19 10:37:24;;;;;;;3.40;2.90;;;22.60;56.70;23.30;100542.00;;;;6272955;22;20169;-56
2023/07/19 10:39:49;;;;;;;5.50;3.00;;;22.60;56.80;23.30;100549.00;;;;6273079;22;20171;-55
2023/07/19 10:42:15;;;;;;;4.20;2.90;;;22.60;57.20;23.30;100555.00;;;;6273015;22;20146;-55
2023/07/19 10:44:41;;;;;;;2.80;2.60;;;22.60;57.10;23.30;100550.00;;;;6279878;22;20156;-55